Time;durP1;ratioP1;P1;durP2;ratioP2;P2;SDS_P1;SDS_P2;PMS_P1;PMS_P2;Temp;Humidity;BMP_temperature;BMP_pressure;BME280_temperature;BME280_humidity;BME280_pressure;Samples;Min_cycle;Max_cycle;Signal;HPM_P1;HPM_P2
2020/12/08 00:02:24;;;;;;;3.58;1.85;;;;;;;;;;5092176;28;20016;-65
2020/12/08 00:04:50;;;;;;;3.80;2.33;;;;;;;;;;5092107;28;20012;-65
2020/12/08 00:07:16;;;;;;;3.60;2.15;;;;;;;;;;5092086;28;20024;-67
2020/12/08 00:09:43;;;;;;;2.70;1.83;;;;;;;;;;5091101;28;20065;-65
2020/12/08 00:12:09;;;;;;;4.35;1.75;;;;;;;;;;5091524;28;20123;-66
2020/12/08 00:14:36;;;;;;;2.42;1.83;;;;;;;;;;5092274;28;20017;-64
2020/12/08 00:17:02;;;;;;;1.60;0.85;;;;;;;;;;5093652;28;20189;-64
2020/12/08 00:19:29;;;;;;;2.80;1.30;;;;;;;;;;5093671;28;20043;-66
2020/12/08 00:21:56;;;;;;;3.83;2.42;;;;;;;;;;5092905;28;20040;-63
2020/12/08 00:24:22;;;;;;;8.02;3.35;;;;;;;;;;5093303;28;20475;-64
2020/12/08 00:26:49;;;;;;;4.43;1.77;;;;;;;;;;5093818;28;20054;-65
2020/12/08 00:29:15;;;;;;;2.47;1.55;;;;;;;;;;5093158;28;20020;-66
2020/12/08 00:31:41;;;;;;;5.63;1.65;;;;;;;;;;5093501;28;20020;-66
2020/12/08 00:34:07;;;;;;;1.55;1.15;;;;;;;;;;5093169;28;20023;-66
2020/12/08 00:36:33;;;;;;;2.60;1.55;;;;;;;;;;5092977;28;20077;-66
2020/12/08 00:38:59;;;;;;;17.05;7.63;;;;;;;;;;5093553;28;20525;-65
2020/12/08 00:41:25;;;;;;;7.47;4.10;;;;;;;;;;5093713;28;20036;-66
2020/12/08 00:43:52;;;;;;;3.58;2.30;;;;;;;;;;5093147;28;20028;-65
2020/12/08 00:46:18;;;;;;;4.72;2.08;;;;;;;;;;5093173;28;20025;-64
2020/12/08 00:48:45;;;;;;;14.10;5.07;;;;;;;;;;5093349;28;20095;-67
2020/12/08 00:51:11;;;;;;;6.70;3.10;;;;;;;;;;5093085;28;20024;-65
2020/12/08 00:53:38;;;;;;;13.50;6.15;;;;;;;;;;5093390;28;20530;-64
2020/12/08 00:56:13;;;;;;;21.70;8.35;;;;;;;;;;5096929;28;20023;-65
2020/12/08 00:58:40;;;;;;;53.40;21.77;;;;;;;;;;5096566;28;20095;-65
2020/12/08 01:01:06;;;;;;;15.38;5.95;;;;;;;;;;5096816;28;20027;-64
2020/12/08 01:03:33;;;;;;;23.58;9.65;;;;;;;;;;5096488;28;20023;-66
2020/12/08 01:06:02;;;;;;;42.40;16.48;;;;;;;;;;5096458;28;20008;-65
2020/12/08 01:08:29;;;;;;;29.05;10.85;;;;;;;;;;5096772;28;20524;-66
2020/12/08 01:10:55;;;;;;;75.05;22.23;;;;;;;;;;5096527;28;20461;-64
2020/12/08 01:13:21;;;;;;;61.10;24.63;;;;;;;;;;5096578;28;20414;-64
2020/12/08 01:15:48;;;;;;;19.83;7.40;;;;;;;;;;5096291;28;20027;-64
2020/12/08 01:18:14;;;;;;;135.02;42.35;;;;;;;;;;5095917;28;20035;-66
2020/12/08 01:20:41;;;;;;;11.65;4.00;;;;;;;;;;5096445;28;20020;-66
2020/12/08 01:23:07;;;;;;;42.65;15.93;;;;;;;;;;5096550;28;20094;-67
2020/12/08 01:25:33;;;;;;;13.73;5.35;;;;;;;;;;5095462;28;20349;-66
2020/12/08 01:28:00;;;;;;;15.82;7.10;;;;;;;;;;5095895;28;20463;-64
2020/12/08 01:30:26;;;;;;;6.13;2.70;;;;;;;;;;5096286;28;20039;-66
2020/12/08 01:32:52;;;;;;;6.88;3.58;;;;;;;;;;5095158;28;20027;-66
2020/12/08 01:35:18;;;;;;;4.15;2.00;;;;;;;;;;5095875;28;20457;-65
2020/12/08 01:37:45;;;;;;;27.83;13.23;;;;;;;;;;5095796;28;20074;-67
2020/12/08 01:40:12;;;;;;;11.55;5.15;;;;;;;;;;5094493;28;20020;-66
2020/12/08 01:42:38;;;;;;;24.20;12.23;;;;;;;;;;5095501;28;20028;-66
2020/12/08 01:45:05;;;;;;;18.92;8.77;;;;;;;;;;5095572;28;20023;-65
2020/12/08 01:47:36;;;;;;;17.05;9.40;;;;;;;;;;5094571;28;20016;-69
2020/12/08 01:50:02;;;;;;;13.02;6.68;;;;;;;;;;5095533;28;20059;-66
2020/12/08 01:52:28;;;;;;;21.13;10.40;;;;;;;;;;5096020;28;20348;-65
2020/12/08 01:54:55;;;;;;;16.58;9.05;;;;;;;;;;5095740;28;20103;-66
2020/12/08 01:57:21;;;;;;;26.67;14.30;;;;;;;;;;5094038;28;20027;-64
2020/12/08 01:59:47;;;;;;;19.70;10.55;;;;;;;;;;5095548;28;20027;-66
2020/12/08 02:02:14;;;;;;;11.68;5.93;;;;;;;;;;5094321;28;20023;-67
2020/12/08 02:04:40;;;;;;;5.63;2.97;;;;;;;;;;5095166;28;20099;-64
2020/12/08 02:07:06;;;;;;;6.45;3.72;;;;;;;;;;5095206;28;20024;-64
2020/12/08 02:09:36;;;;;;;8.15;3.70;;;;;;;;;;5093774;28;20043;-65
2020/12/08 02:12:03;;;;;;;12.02;6.53;;;;;;;;;;5094117;28;20020;-65
2020/12/08 02:14:29;;;;;;;5.67;2.43;;;;;;;;;;5095138;28;20157;-67
2020/12/08 02:16:55;;;;;;;3.78;2.50;;;;;;;;;;5095084;28;20012;-71
2020/12/08 02:19:21;;;;;;;7.55;4.75;;;;;;;;;;5095466;28;20024;-67
2020/12/08 02:21:47;;;;;;;2.70;0.93;;;;;;;;;;5094571;28;20121;-65
2020/12/08 02:24:17;;;;;;;3.13;1.42;;;;;;;;;;5095210;28;20428;-65
2020/12/08 02:26:46;;;;;;;2.42;0.77;;;;;;;;;;5094613;28;20020;-66
2020/12/08 02:29:12;;;;;;;9.10;4.63;;;;;;;;;;5094721;28;20020;-67
2020/12/08 02:31:38;;;;;;;8.02;5.55;;;;;;;;;;5094762;28;20020;-66
2020/12/08 02:34:06;;;;;;;4.65;3.67;;;;;;;;;;5093992;28;20361;-67
2020/12/08 02:36:32;;;;;;;11.30;6.63;;;;;;;;;;5094355;28;20016;-68
2020/12/08 02:38:58;;;;;;;3.33;1.63;;;;;;;;;;5095109;28;20094;-65
2020/12/08 02:41:25;;;;;;;1.65;1.17;;;;;;;;;;5093016;28;20020;-66
2020/12/08 02:43:54;;;;;;;1.58;0.77;;;;;;;;;;5094582;28;20023;-66
2020/12/08 02:46:22;;;;;;;2.20;1.92;;;;;;;;;;5095091;28;20024;-67
2020/12/08 02:48:48;;;;;;;10.55;0.85;;;;;;;;;;5094429;28;20016;-65
2020/12/08 02:51:18;;;;;;;2.25;0.95;;;;;;;;;;5093158;28;20028;-66
2020/12/08 02:53:44;;;;;;;7.50;5.70;;;;;;;;;;5094383;28;20483;-67
2020/12/08 02:56:10;;;;;;;4.22;2.35;;;;;;;;;;5094187;28;20077;-65
2020/12/08 02:58:36;;;;;;;0.93;0.60;;;;;;;;;;5094819;28;20031;-66
2020/12/08 03:01:03;;;;;;;2.55;1.15;;;;;;;;;;5094806;28;20069;-64
2020/12/08 03:03:29;;;;;;;2.05;0.80;;;;;;;;;;5093902;28;20035;-64
2020/12/08 03:05:55;;;;;;;0.50;0.30;;;;;;;;;;5094486;28;20016;-66
2020/12/08 03:08:21;;;;;;;2.40;1.40;;;;;;;;;;5094475;28;20020;-65
2020/12/08 03:10:48;;;;;;;1.50;0.50;;;;;;;;;;5094233;28;20363;-67
2020/12/08 03:13:14;;;;;;;19.58;10.40;;;;;;;;;;5094286;28;20024;-66
2020/12/08 03:15:40;;;;;;;5.68;2.25;;;;;;;;;;5093606;28;20012;-64
2020/12/08 03:18:06;;;;;;;6.18;3.13;;;;;;;;;;5093234;28;20032;-65
2020/12/08 03:20:32;;;;;;;4.35;2.17;;;;;;;;;;5093935;28;20016;-68
2020/12/08 03:22:58;;;;;;;14.20;5.18;;;;;;;;;;5094519;28;20364;-65
2020/12/08 03:25:24;;;;;;;9.80;4.32;;;;;;;;;;5093875;28;20012;-64
2020/12/08 03:27:50;;;;;;;2.45;1.23;;;;;;;;;;5094033;28;20073;-65
2020/12/08 03:30:16;;;;;;;1.52;1.00;;;;;;;;;;5093569;28;20028;-66
2020/12/08 03:32:42;;;;;;;1.83;0.85;;;;;;;;;;5092767;28;20360;-65
2020/12/08 03:35:09;;;;;;;1.17;0.50;;;;;;;;;;5094066;28;20034;-64
2020/12/08 03:37:35;;;;;;;2.85;1.15;;;;;;;;;;5092237;28;20093;-65
2020/12/08 03:40:01;;;;;;;4.85;1.45;;;;;;;;;;5092740;28;20056;-64
2020/12/08 03:42:27;;;;;;;0.75;0.57;;;;;;;;;;5092689;28;20031;-66
2020/12/08 03:44:53;;;;;;;3.85;2.13;;;;;;;;;;5093433;28;20027;-65
2020/12/08 03:47:19;;;;;;;12.27;6.05;;;;;;;;;;5093429;28;20397;-66
2020/12/08 03:49:45;;;;;;;3.15;1.58;;;;;;;;;;5093873;28;20020;-68
2020/12/08 03:52:11;;;;;;;2.88;1.30;;;;;;;;;;5092301;28;20020;-65
2020/12/08 03:54:37;;;;;;;1.60;0.95;;;;;;;;;;5094155;28;20020;-65
2020/12/08 03:57:04;;;;;;;1.98;0.75;;;;;;;;;;5094131;28;20046;-66
2020/12/08 03:59:30;;;;;;;3.90;2.08;;;;;;;;;;5092851;28;20024;-66
2020/12/08 04:01:56;;;;;;;3.42;1.60;;;;;;;;;;5093580;28;20039;-64
2020/12/08 04:04:22;;;;;;;12.18;5.15;;;;;;;;;;5093630;28;20012;-64
2020/12/08 04:06:48;;;;;;;6.80;3.60;;;;;;;;;;5092193;28;20394;-66
2020/12/08 04:09:15;;;;;;;1.77;0.70;;;;;;;;;;5093366;28;20345;-65
2020/12/08 04:11:41;;;;;;;2.45;1.10;;;;;;;;;;5093781;28;20111;-65
2020/12/08 04:14:07;;;;;;;10.85;5.05;;;;;;;;;;5093133;28;20048;-65
2020/12/08 04:16:34;;;;;;;8.43;3.97;;;;;;;;;;5093414;28;20031;-66
2020/12/08 04:19:00;;;;;;;3.13;1.48;;;;;;;;;;5093619;28;20154;-66
2020/12/08 04:21:27;;;;;;;54.42;24.38;;;;;;;;;;5093475;28;20460;-65
2020/12/08 04:24:00;;;;;;;42.13;12.40;;;;;;;;;;5093214;28;20024;-68
2020/12/08 04:26:35;;;;;;;15.75;4.63;;;;;;;;;;5093146;28;20028;-66
2020/12/08 04:29:01;;;;;;;89.57;35.42;;;;;;;;;;5095750;28;20135;-67
2020/12/08 04:31:30;;;;;;;66.72;32.08;;;;;;;;;;5097354;28;20032;-66
2020/12/08 04:33:56;;;;;;;16.05;7.32;;;;;;;;;;5097074;28;20027;-65
2020/12/08 04:36:23;;;;;;;17.58;8.13;;;;;;;;;;5097064;28;20024;-65
2020/12/08 04:38:49;;;;;;;14.05;6.47;;;;;;;;;;5097253;28;20034;-67
2020/12/08 04:41:19;;;;;;;10.80;6.20;;;;;;;;;;5096998;28;20020;-64
2020/12/08 04:43:46;;;;;;;14.55;6.50;;;;;;;;;;5095639;28;20020;-65
2020/12/08 04:46:13;;;;;;;4.95;1.92;;;;;;;;;;5095885;28;20020;-64
2020/12/08 04:48:39;;;;;;;4.00;2.20;;;;;;;;;;5096703;28;20421;-64
2020/12/08 04:51:06;;;;;;;2.17;1.08;;;;;;;;;;5097270;28;20024;-66
2020/12/08 04:53:32;;;;;;;0.93;0.82;;;;;;;;;;5096513;28;20114;-65
2020/12/08 04:55:58;;;;;;;1.70;0.80;;;;;;;;;;5096681;28;20038;-63
2020/12/08 04:58:25;;;;;;;3.95;1.48;;;;;;;;;;5096579;28;20372;-64
2020/12/08 05:00:51;;;;;;;3.42;1.70;;;;;;;;;;5097120;28;20378;-64
2020/12/08 05:03:24;;;;;;;1.95;0.85;;;;;;;;;;5096202;28;20028;-64
2020/12/08 05:05:50;;;;;;;1.85;0.85;;;;;;;;;;5096712;28;20075;-64
2020/12/08 05:08:16;;;;;;;4.10;1.90;;;;;;;;;;5096026;28;20024;-63
2020/12/08 05:10:43;;;;;;;3.75;1.48;;;;;;;;;;5096632;28;20062;-65
2020/12/08 05:13:15;;;;;;;2.22;1.00;;;;;;;;;;5096621;28;20463;-63
2020/12/08 05:15:41;;;;;;;5.72;2.92;;;;;;;;;;5096558;28;20357;-64
2020/12/08 05:18:08;;;;;;;5.82;3.17;;;;;;;;;;5096081;28;20020;-66
2020/12/08 05:20:35;;;;;;;1.83;1.35;;;;;;;;;;5096275;28;20395;-65
2020/12/08 05:23:01;;;;;;;1.27;0.95;;;;;;;;;;5096346;28;20475;-65
2020/12/08 05:25:28;;;;;;;1.52;0.68;;;;;;;;;;5096714;28;20016;-65
2020/12/08 05:27:55;;;;;;;6.00;1.70;;;;;;;;;;5096270;28;20027;-66
2020/12/08 05:30:21;;;;;;;0.97;0.73;;;;;;;;;;5096298;28;20034;-64
2020/12/08 05:32:48;;;;;;;1.27;0.95;;;;;;;;;;5096203;28;20061;-66
2020/12/08 05:35:15;;;;;;;5.32;2.03;;;;;;;;;;5095945;28;20531;-68
2020/12/08 05:37:42;;;;;;;6.68;2.50;;;;;;;;;;5095569;28;20024;-64
2020/12/08 05:40:19;;;;;;;2.33;1.05;;;;;;;;;;5095270;28;20020;-65
2020/12/08 05:42:47;;;;;;;3.47;1.20;;;;;;;;;;5096700;28;20464;-65
2020/12/08 05:45:14;;;;;;;4.53;1.73;;;;;;;;;;5095274;28;20035;-66
2020/12/08 05:47:46;;;;;;;2.58;1.67;;;;;;;;;;5095995;28;20012;-63
2020/12/08 05:50:13;;;;;;;2.53;1.50;;;;;;;;;;5094294;28;20103;-66
2020/12/08 05:52:40;;;;;;;2.03;1.15;;;;;;;;;;5095878;28;20024;-65
2020/12/08 05:55:10;;;;;;;6.00;2.95;;;;;;;;;;5096123;28;20012;-65
2020/12/08 05:57:37;;;;;;;6.30;2.53;;;;;;;;;;5095419;28;20042;-65
2020/12/08 06:00:04;;;;;;;5.68;1.55;;;;;;;;;;5095685;28;20475;-66
2020/12/08 06:02:31;;;;;;;18.83;7.57;;;;;;;;;;5094395;28;20020;-66
2020/12/08 06:04:58;;;;;;;10.35;9.27;;;;;;;;;;5095439;28;20024;-66
2020/12/08 06:07:28;;;;;;;1.38;1.27;;;;;;;;;;5094014;28;20409;-65
2020/12/08 06:10:11;;;;;;;20.20;13.68;;;;;;;;;;5095265;28;20059;-66
2020/12/08 06:12:38;;;;;;;18.80;12.32;;;;;;;;;;5095566;28;20024;-65
2020/12/08 06:15:24;;;;;;;11.10;7.03;;;;;;;;;;5095479;28;20020;-64
2020/12/08 06:17:51;;;;;;;5.25;2.97;;;;;;;;;;5095051;28;20107;-66
2020/12/08 06:20:17;;;;;;;5.03;2.83;;;;;;;;;;5094797;28;20020;-64
2020/12/08 06:22:53;;;;;;;8.93;5.15;;;;;;;;;;5095074;28;20044;-66
2020/12/08 06:25:20;;;;;;;8.55;3.97;;;;;;;;;;5094628;28;20456;-66
2020/12/08 06:27:46;;;;;;;7.50;3.28;;;;;;;;;;5095135;28;20475;-66
2020/12/08 06:30:12;;;;;;;7.60;5.03;;;;;;;;;;5094825;28;20077;-67
2020/12/08 06:32:42;;;;;;;5.10;3.67;;;;;;;;;;5094752;28;20046;-66
2020/12/08 06:35:10;;;;;;;15.98;8.00;;;;;;;;;;5095003;28;20099;-66
2020/12/08 06:37:37;;;;;;;22.88;11.27;;;;;;;;;;5094746;28;20028;-66
2020/12/08 06:40:07;;;;;;;51.65;24.30;;;;;;;;;;5094525;28;20460;-67
2020/12/08 06:42:33;;;;;;;9.07;5.18;;;;;;;;;;5094936;28;20044;-65
2020/12/08 06:45:10;;;;;;;7.32;3.83;;;;;;;;;;5094338;28;20085;-64
2020/12/08 06:47:36;;;;;;;10.43;7.93;;;;;;;;;;5094967;28;20369;-65
2020/12/08 06:50:02;;;;;;;10.80;8.27;;;;;;;;;;5094707;28;20295;-68
2020/12/08 06:52:28;;;;;;;5.72;5.20;;;;;;;;;;5094358;28;20016;-66
2020/12/08 06:54:58;;;;;;;6.82;4.03;;;;;;;;;;5092887;28;20072;-67
2020/12/08 06:57:24;;;;;;;11.27;9.30;;;;;;;;;;5094646;28;20023;-64
2020/12/08 07:00:00;;;;;;;20.95;14.35;;;;;;;;;;5094608;28;20024;-67
2020/12/08 07:02:26;;;;;;;20.25;12.70;;;;;;;;;;5093934;28;20027;-67
2020/12/08 07:04:52;;;;;;;14.88;7.00;;;;;;;;;;5093769;28;20475;-64
2020/12/08 07:07:19;;;;;;;7.45;5.35;;;;;;;;;;5094159;28;20051;-64
2020/12/08 07:09:45;;;;;;;6.22;4.00;;;;;;;;;;5093806;28;20063;-67
2020/12/08 07:12:11;;;;;;;4.97;3.72;;;;;;;;;;5092906;28;20035;-65
2020/12/08 07:14:37;;;;;;;7.22;4.93;;;;;;;;;;5094237;28;20024;-69
2020/12/08 07:17:04;;;;;;;5.03;2.72;;;;;;;;;;5094630;28;20020;-65
2020/12/08 07:19:30;;;;;;;5.23;2.83;;;;;;;;;;5094295;28;20016;-63
2020/12/08 07:22:00;;;;;;;5.00;4.07;;;;;;;;;;5093993;28;20343;-65
2020/12/08 07:24:26;;;;;;;5.20;3.05;;;;;;;;;;5093918;28;20103;-68
2020/12/08 07:26:57;;;;;;;8.85;4.80;;;;;;;;;;5094180;28;20453;-66
2020/12/08 07:29:24;;;;;;;7.82;3.10;;;;;;;;;;5094015;28;20065;-65
2020/12/08 07:31:50;;;;;;;7.43;3.47;;;;;;;;;;5092835;28;20106;-64
2020/12/08 07:34:16;;;;;;;3.85;2.25;;;;;;;;;;5093727;28;20596;-64
2020/12/08 07:36:42;;;;;;;6.50;3.85;;;;;;;;;;5093769;28;20016;-65
2020/12/08 07:39:17;;;;;;;7.40;4.65;;;;;;;;;;5093984;28;20031;-67
2020/12/08 07:41:43;;;;;;;18.92;12.23;;;;;;;;;;5094451;28;20016;-66
2020/12/08 07:44:18;;;;;;;10.65;6.22;;;;;;;;;;5093501;28;20027;-65
2020/12/08 07:46:48;;;;;;;10.15;5.03;;;;;;;;;;5094067;28;20019;-66
2020/12/08 07:49:15;;;;;;;18.70;8.15;;;;;;;;;;5093695;28;20334;-66
2020/12/08 07:51:41;;;;;;;21.20;8.82;;;;;;;;;;5093718;28;20036;-65
2020/12/08 07:54:08;;;;;;;7.18;3.78;;;;;;;;;;5093571;28;20024;-65
2020/12/08 07:56:36;;;;;;;8.95;4.35;;;;;;;;;;5093828;28;20019;-65
2020/12/08 07:59:02;;;;;;;8.75;5.85;;;;;;;;;;5093891;28;20028;-69
2020/12/08 08:01:28;;;;;;;7.18;3.80;;;;;;;;;;5093500;28;20016;-67
2020/12/08 08:03:55;;;;;;;9.35;4.60;;;;;;;;;;5096069;28;20357;-72
2020/12/08 08:06:22;;;;;;;7.30;4.13;;;;;;;;;;5098465;28;20047;-76
2020/12/08 08:08:49;;;;;;;8.93;5.47;;;;;;;;;;5097851;28;20021;-78
2020/12/08 08:11:15;;;;;;;26.88;12.07;;;;;;;;;;5100615;28;20465;-78
2020/12/08 08:13:41;;;;;;;9.73;5.72;;;;;;;;;;5096872;28;20024;-75
2020/12/08 08:16:11;;;;;;;17.55;8.98;;;;;;;;;;5097380;28;20031;-74
2020/12/08 08:18:38;;;;;;;14.65;6.97;;;;;;;;;;5096537;28;20063;-71
2020/12/08 08:21:04;;;;;;;9.00;4.43;;;;;;;;;;5097171;28;20054;-74
2020/12/08 08:23:30;;;;;;;18.98;7.30;;;;;;;;;;5096063;28;20260;-74
2020/12/08 08:25:57;;;;;;;22.00;10.90;;;;;;;;;;5098104;28;20039;-72
2020/12/08 08:28:23;;;;;;;19.67;9.63;;;;;;;;;;5095771;28;20024;-70
2020/12/08 08:30:50;;;;;;;11.10;3.47;;;;;;;;;;5097107;28;20437;-74
2020/12/08 08:33:16;;;;;;;7.90;3.40;;;;;;;;;;5096215;28;20016;-76
2020/12/08 08:35:42;;;;;;;19.00;8.18;;;;;;;;;;5096268;28;20119;-77
2020/12/08 08:38:08;;;;;;;19.90;8.48;;;;;;;;;;5098039;28;20492;-75
2020/12/08 08:40:34;;;;;;;16.35;6.53;;;;;;;;;;5099100;28;20118;-78
2020/12/08 08:43:01;;;;;;;11.90;5.05;;;;;;;;;;5099039;28;20023;-78
2020/12/08 08:45:27;;;;;;;13.25;6.20;;;;;;;;;;5099374;28;20020;-78
2020/12/08 08:47:53;;;;;;;45.40;16.30;;;;;;;;;;5082871;28;20061;-77
2020/12/08 08:50:20;;;;;;;23.40;8.02;;;;;;;;;;5097503;28;20478;-77
2020/12/08 08:52:46;;;;;;;12.43;4.38;;;;;;;;;;5090678;28;20024;-77
2020/12/08 08:55:12;;;;;;;7.28;3.20;;;;;;;;;;5082121;28;20021;-77
2020/12/08 08:57:39;;;;;;;5.18;2.50;;;;;;;;;;5087891;28;20429;-77
2020/12/08 09:00:06;;;;;;;14.02;8.23;;;;;;;;;;5099014;28;20044;-78
2020/12/08 09:02:33;;;;;;;;;;;;;;;;;;5096778;28;20020;-75
2020/12/08 09:04:59;;;;;;;9.63;4.57;;;;;;;;;;5082380;28;19901;-74
2020/12/08 09:07:28;;;;;;;12.65;4.38;;;;;;;;;;5090108;28;20024;-74
2020/12/08 09:09:54;;;;;;;7.55;3.80;;;;;;;;;;5081440;28;20028;-74
2020/12/08 09:12:20;;;;;;;9.73;4.28;;;;;;;;;;5084010;28;20025;-74
2020/12/08 09:14:48;;;;;;;5.75;3.28;;;;;;;;;;5077941;28;20407;-74
2020/12/08 09:17:14;;;;;;;9.32;3.35;;;;;;;;;;5090473;28;20024;-74
2020/12/08 09:19:40;;;;;;;2.55;1.98;;;;;;;;;;5093930;28;20051;-74
2020/12/08 09:22:06;;;;;;;10.93;4.28;;;;;;;;;;5094049;28;20086;-74
2020/12/08 09:24:33;;;;;;;5.70;3.50;;;;;;;;;;5095426;28;20120;-74
2020/12/08 09:26:59;;;;;;;9.13;4.63;;;;;;;;;;5095774;28;20457;-73
2020/12/08 09:29:26;;;;;;;11.10;5.22;;;;;;;;;;5095341;28;20111;-74
2020/12/08 09:31:56;;;;;;;19.35;9.82;;;;;;;;;;5094990;28;20024;-74
2020/12/08 09:34:22;;;;;;;13.18;6.65;;;;;;;;;;5094729;28;20468;-74
2020/12/08 09:36:49;;;;;;;6.97;3.47;;;;;;;;;;5094727;28;20020;-74
2020/12/08 09:39:15;;;;;;;3.35;1.63;;;;;;;;;;5095790;28;20062;-74
2020/12/08 09:41:42;;;;;;;6.22;4.05;;;;;;;;;;5094806;28;20119;-74
2020/12/08 09:44:10;;;;;;;10.75;4.07;;;;;;;;;;5095778;28;20062;-74
2020/12/08 09:46:37;;;;;;;7.63;3.72;;;;;;;;;;5095742;28;20065;-74
2020/12/08 09:49:03;;;;;;;25.40;9.70;;;;;;;;;;5095914;28;20028;-74
2020/12/08 09:51:29;;;;;;;11.68;4.15;;;;;;;;;;5094389;28;20122;-74
2020/12/08 09:53:55;;;;;;;12.85;4.82;;;;;;;;;;5095288;28;20453;-74
2020/12/08 09:56:22;;;;;;;9.90;3.67;;;;;;;;;;5094502;28;20031;-74
2020/12/08 09:58:48;;;;;;;7.78;4.47;;;;;;;;;;5094697;28;20016;-74
2020/12/08 10:01:14;;;;;;;8.57;3.60;;;;;;;;;;5094547;28;20453;-75
2020/12/08 10:03:40;;;;;;;6.78;2.85;;;;;;;;;;5095679;28;20024;-77
2020/12/08 10:06:07;;;;;;;7.03;3.65;;;;;;;;;;5095441;28;20016;-76
2020/12/08 10:08:33;;;;;;;8.20;4.07;;;;;;;;;;5094330;28;20016;-76
2020/12/08 10:10:59;;;;;;;8.18;3.55;;;;;;;;;;5095688;28;20052;-77
2020/12/08 10:13:25;;;;;;;7.22;4.05;;;;;;;;;;5095240;28;20091;-77
2020/12/08 10:15:51;;;;;;;7.00;4.63;;;;;;;;;;5094284;28;20502;-76
2020/12/08 10:18:17;;;;;;;8.02;4.18;;;;;;;;;;5094227;28;20031;-77
2020/12/08 10:20:43;;;;;;;4.38;2.70;;;;;;;;;;5093777;28;20027;-77
2020/12/08 10:23:10;;;;;;;12.13;6.97;;;;;;;;;;5095240;28;20059;-78
2020/12/08 10:25:36;;;;;;;3.53;2.00;;;;;;;;;;5094105;28;20041;-77
2020/12/08 10:28:02;;;;;;;2.75;1.70;;;;;;;;;;5094646;28;20020;-77
2020/12/08 10:30:28;;;;;;;3.92;2.00;;;;;;;;;;5094366;28;20020;-76
2020/12/08 10:32:55;;;;;;;15.90;6.65;;;;;;;;;;5093915;28;20093;-76
2020/12/08 10:35:21;;;;;;;3.92;2.53;;;;;;;;;;5094825;28;20043;-76
2020/12/08 10:37:47;;;;;;;6.18;2.67;;;;;;;;;;5095021;28;20523;-77
2020/12/08 10:40:14;;;;;;;12.32;5.93;;;;;;;;;;5095028;28;20055;-75
2020/12/08 10:42:40;;;;;;;25.73;10.63;;;;;;;;;;5093270;28;20110;-76
2020/12/08 10:45:06;;;;;;;12.98;6.00;;;;;;;;;;5094938;28;20016;-76
2020/12/08 10:47:32;;;;;;;10.05;5.25;;;;;;;;;;5093645;28;20471;-76
2020/12/08 10:49:58;;;;;;;11.88;4.78;;;;;;;;;;5094551;28;20028;-76
2020/12/08 10:52:24;;;;;;;11.10;5.68;;;;;;;;;;5095221;28;20106;-76
2020/12/08 10:54:50;;;;;;;4.57;2.92;;;;;;;;;;5094249;28;20503;-75
2020/12/08 10:57:16;;;;;;;5.38;3.45;;;;;;;;;;5094734;28;20107;-76
2020/12/08 10:59:42;;;;;;;6.68;3.08;;;;;;;;;;5095144;28;20024;-79
2020/12/08 11:02:09;;;;;;;5.63;3.55;;;;;;;;;;5096376;28;20035;-78
2020/12/08 11:04:35;;;;;;;10.00;5.97;;;;;;;;;;5093540;28;20027;-80
2020/12/08 11:07:01;;;;;;;2.20;2.00;;;;;;;;;;5094460;28;20050;-79
2020/12/08 11:09:27;;;;;;;3.65;3.33;;;;;;;;;;5094104;28;20551;-78
2020/12/08 11:11:53;;;;;;;3.40;2.15;;;;;;;;;;5093328;28;20059;-77
2020/12/08 11:14:20;;;;;;;3.45;1.95;;;;;;;;;;5094514;28;20099;-78
2020/12/08 11:16:46;;;;;;;6.25;2.35;;;;;;;;;;5094185;28;20020;-77
2020/12/08 11:19:12;;;;;;;6.05;1.90;;;;;;;;;;5093146;28;20415;-77
2020/12/08 11:21:39;;;;;;;3.50;2.40;;;;;;;;;;5094236;28;20044;-77
2020/12/08 11:24:08;;;;;;;3.55;2.67;;;;;;;;;;5092701;28;20028;-78
2020/12/08 11:26:34;;;;;;;6.43;3.47;;;;;;;;;;5092979;28;20540;-78
2020/12/08 11:29:00;;;;;;;6.22;1.88;;;;;;;;;;5094704;28;20038;-69
2020/12/08 11:31:27;;;;;;;39.78;17.55;;;;;;;;;;5094168;28;20042;-73
2020/12/08 11:33:53;;;;;;;6.53;4.63;;;;;;;;;;5094402;28;20029;-74
2020/12/08 11:36:19;;;;;;;18.15;9.60;;;;;;;;;;5088896;28;20360;-75
2020/12/08 11:38:45;;;;;;;8.93;4.93;;;;;;;;;;5090999;28;20048;-75
2020/12/08 11:41:12;;;;;;;18.50;10.95;;;;;;;;;;5078439;28;20040;-74
2020/12/08 11:43:39;;;;;;;6.32;2.47;;;;;;;;;;5077161;28;20027;-72
2020/12/08 11:46:05;;;;;;;4.82;2.67;;;;;;;;;;5093175;28;20545;-73
2020/12/08 11:48:31;;;;;;;6.65;5.13;;;;;;;;;;5092018;28;20042;-72
2020/12/08 11:50:58;;;;;;;9.25;6.30;;;;;;;;;;5081524;28;20024;-73
2020/12/08 11:53:24;;;;;;;5.65;3.85;;;;;;;;;;5079250;28;20024;-73
2020/12/08 11:55:51;;;;;;;4.55;2.65;;;;;;;;;;5090088;28;20016;-74
2020/12/08 11:58:17;;;;;;;6.30;3.33;;;;;;;;;;5091691;28;20474;-75
2020/12/08 12:00:43;;;;;;;6.72;4.45;;;;;;;;;;5092969;28;20020;-75
2020/12/08 12:03:09;;;;;;;12.88;6.72;;;;;;;;;;5089361;28;20031;-75
2020/12/08 12:05:37;;;;;;;12.60;6.50;;;;;;;;;;5084535;28;20025;-75
2020/12/08 12:08:03;;;;;;;13.80;7.38;;;;;;;;;;5071442;28;20062;-74
2020/12/08 12:10:30;;;;;;;11.95;6.32;;;;;;;;;;5071538;28;20032;-74
2020/12/08 12:12:56;;;;;;;8.82;6.10;;;;;;;;;;5078799;28;20028;-73
2020/12/08 12:15:22;;;;;;;6.60;4.73;;;;;;;;;;5093200;28;20027;-73
2020/12/08 12:17:49;;;;;;;7.63;4.53;;;;;;;;;;5091583;28;20786;-73
2020/12/08 12:20:15;;;;;;;10.88;6.57;;;;;;;;;;5091201;28;20020;-74
2020/12/08 12:22:41;;;;;;;15.88;5.53;;;;;;;;;;5083734;28;20045;-73
2020/12/08 12:25:08;;;;;;;13.65;9.88;;;;;;;;;;5071273;28;20028;-72
2020/12/08 12:27:34;;;;;;;15.05;8.50;;;;;;;;;;5072531;28;20021;-73
2020/12/08 12:30:00;;;;;;;11.77;6.60;;;;;;;;;;5091060;28;20028;-73
2020/12/08 12:32:26;;;;;;;13.52;6.53;;;;;;;;;;5091663;28;20470;-73
2020/12/08 12:34:52;;;;;;;16.63;8.18;;;;;;;;;;5091182;28;20028;-74
2020/12/08 12:37:19;;;;;;;16.98;7.90;;;;;;;;;;5091643;28;20081;-74
2020/12/08 12:39:45;;;;;;;9.82;5.47;;;;;;;;;;5083670;28;20016;-74
2020/12/08 12:42:18;;;;;;;14.02;8.02;;;;;;;;;;5086315;28;20484;-73
2020/12/08 12:44:48;;;;;;;12.38;7.72;;;;;;;;;;5086083;28;20038;-75
2020/12/08 12:47:15;;;;;;;9.38;6.03;;;;;;;;;;5086372;28;20019;-75
2020/12/08 12:49:47;;;;;;;11.93;6.68;;;;;;;;;;5088173;28;20457;-74
2020/12/08 12:52:18;;;;;;;11.77;6.82;;;;;;;;;;5087981;28;20021;-75
2020/12/08 12:54:44;;;;;;;6.07;4.30;;;;;;;;;;5089684;28;20012;-73
2020/12/08 12:57:10;;;;;;;13.50;9.73;;;;;;;;;;5090839;28;20031;-73
2020/12/08 12:59:36;;;;;;;9.50;5.90;;;;;;;;;;5092970;28;20469;-73
2020/12/08 13:02:04;;;;;;;8.77;5.90;;;;;;;;;;5077817;28;20024;-72
2020/12/08 13:04:30;;;;;;;13.32;8.77;;;;;;;;;;5080999;28;20024;-72
2020/12/08 13:06:56;;;;;;;5.93;3.65;;;;;;;;;;5094694;28;20467;-74
2020/12/08 13:09:23;;;;;;;10.18;5.03;;;;;;;;;;5095274;28;20027;-74
2020/12/08 13:11:49;;;;;;;11.25;6.40;;;;;;;;;;5077111;28;20101;-72
2020/12/08 13:14:15;;;;;;;14.73;9.73;;;;;;;;;;5078978;28;20016;-77
2020/12/08 13:16:41;;;;;;;7.38;4.05;;;;;;;;;;5094373;28;20015;-75
2020/12/08 13:19:09;;;;;;;10.20;5.47;;;;;;;;;;5082232;28;20035;-71
2020/12/08 13:21:35;;;;;;;9.82;4.35;;;;;;;;;;5075545;28;20044;-73
2020/12/08 13:24:01;;;;;;;15.07;5.30;;;;;;;;;;5090047;28;20534;-73
2020/12/08 13:26:27;;;;;;;12.80;6.18;;;;;;;;;;5083973;28;20050;-76
2020/12/08 13:28:53;;;;;;;7.25;4.30;;;;;;;;;;5096228;28;20070;-75
2020/12/08 13:31:19;;;;;;;9.45;4.90;;;;;;;;;;5096338;28;20361;-72
2020/12/08 13:33:46;;;;;;;8.98;5.68;;;;;;;;;;5080801;28;20097;-79
2020/12/08 13:36:12;;;;;;;9.10;6.40;;;;;;;;;;5082122;28;20115;-72
2020/12/08 13:38:38;;;;;;;4.07;3.38;;;;;;;;;;5080715;28;20021;-73
2020/12/08 13:41:06;;;;;;;6.47;4.57;;;;;;;;;;5077602;28;20028;-72
2020/12/08 13:43:33;;;;;;;20.20;6.72;;;;;;;;;;5079979;28;20039;-73
2020/12/08 13:45:59;;;;;;;11.68;6.38;;;;;;;;;;5084041;28;20020;-73
2020/12/08 13:48:25;;;;;;;10.65;6.95;;;;;;;;;;5093856;28;20027;-72
2020/12/08 13:50:51;;;;;;;12.43;5.55;;;;;;;;;;5084008;28;20364;-70
2020/12/08 13:53:17;;;;;;;9.65;6.68;;;;;;;;;;5086730;28;20028;-74
2020/12/08 13:55:44;;;;;;;26.00;11.73;;;;;;;;;;5081952;28;20024;-75
2020/12/08 13:58:10;;;;;;;13.75;6.75;;;;;;;;;;5093626;28;20020;-72
2020/12/08 14:00:36;;;;;;;16.83;9.40;;;;;;;;;;5085660;28;20063;-74
2020/12/08 14:03:03;;;;;;;19.77;11.02;;;;;;;;;;5093414;28;20039;-74
2020/12/08 14:05:29;;;;;;;15.20;8.35;;;;;;;;;;5093238;28;20430;-72
2020/12/08 14:07:55;;;;;;;35.88;19.45;;;;;;;;;;5084159;28;20020;-74
2020/12/08 14:10:22;;;;;;;26.17;11.43;;;;;;;;;;5086349;28;20073;-73
2020/12/08 14:12:48;;;;;;;15.57;7.88;;;;;;;;;;5093128;28;20109;-74
2020/12/08 14:15:15;;;;;;;16.50;8.88;;;;;;;;;;5093314;28;20012;-72
2020/12/08 14:17:42;;;;;;;31.25;16.05;;;;;;;;;;5092944;28;20104;-73
2020/12/08 14:20:08;;;;;;;47.40;23.65;;;;;;;;;;5086034;28;20530;-72
2020/12/08 14:22:34;;;;;;;36.92;17.88;;;;;;;;;;5085510;28;20122;-75
2020/12/08 14:25:03;;;;;;;21.40;10.50;;;;;;;;;;5086267;28;20024;-76
2020/12/08 14:27:29;;;;;;;44.55;23.05;;;;;;;;;;5093519;28;20016;-75
2020/12/08 14:29:55;;;;;;;27.95;14.73;;;;;;;;;;5084836;28;20380;-73
2020/12/08 14:32:21;;;;;;;39.42;19.45;;;;;;;;;;5087225;28;20050;-74
2020/12/08 14:34:47;;;;;;;30.75;17.77;;;;;;;;;;5088468;28;20482;-74